createdAt,value
2019-04-25T00:00:58.883Z,4.20
2019-04-25T00:01:58.876Z,4.80
2019-04-25T00:02:58.875Z,4.50
2019-04-25T00:03:58.862Z,5.20
2019-04-25T00:04:58.840Z,5.20
2019-04-25T00:05:58.873Z,5.50
2019-04-25T00:06:58.846Z,5.80
2019-04-25T00:07:58.811Z,5.40
2019-04-25T00:08:58.812Z,5.90
2019-04-25T00:09:58.788Z,5.50
2019-04-25T00:10:58.783Z,6.30
2019-04-25T00:11:59.739Z,6.10
2019-04-25T00:12:58.757Z,5.70
2019-04-25T00:13:58.748Z,6.50
2019-04-25T00:14:58.737Z,6.40
2019-04-25T00:15:58.734Z,6.60
2019-04-25T00:16:58.758Z,6.80
2019-04-25T00:18:08.843Z,6.50
2019-04-25T00:18:58.699Z,6.80
2019-04-25T00:19:58.677Z,6.80
2019-04-25T00:20:58.669Z,7.10
2019-04-25T00:21:58.656Z,6.90
2019-04-25T00:22:58.687Z,7.40
2019-04-25T00:23:58.638Z,7.10
2019-04-25T00:24:58.634Z,7.70
2019-04-25T00:25:58.627Z,6.70
2019-04-25T00:26:58.602Z,7.90
2019-04-25T00:27:58.595Z,8.10
2019-04-25T00:28:58.613Z,8.80
2019-04-25T00:29:58.574Z,8.00
2019-04-25T00:30:58.580Z,8.80
2019-04-25T00:31:58.555Z,9.60
2019-04-25T00:32:58.543Z,8.60
2019-04-25T00:33:58.571Z,9.60
2019-04-25T00:34:58.525Z,10.50
2019-04-25T00:35:58.516Z,10.60
2019-04-25T00:36:58.506Z,10.30
2019-04-25T00:37:58.491Z,10.40
2019-04-25T00:38:58.478Z,10.50
2019-04-25T00:39:58.493Z,10.70
2019-04-25T00:40:58.459Z,11.20
2019-04-25T00:41:58.469Z,11.00
2019-04-25T00:42:58.436Z,10.60
2019-04-25T00:43:58.423Z,11.30
2019-04-25T00:44:58.417Z,11.00
2019-04-25T00:45:58.422Z,11.30
2019-04-25T00:46:58.398Z,11.50
2019-04-25T00:47:58.379Z,10.40
2019-04-25T00:49:08.562Z,11.90
2019-04-25T00:49:58.358Z,10.70
2019-04-25T00:50:58.365Z,11.00
2019-04-25T00:51:58.340Z,10.80
2019-04-25T00:52:58.333Z,11.10
2019-04-25T00:53:58.322Z,11.10
2019-04-25T00:54:58.307Z,11.80
2019-04-25T00:55:58.294Z,11.40
2019-04-25T00:56:58.309Z,10.90
2019-04-25T00:57:58.276Z,10.70
2019-04-25T00:58:58.265Z,11.90
2019-04-25T00:59:58.253Z,10.30
2019-04-25T01:00:58.252Z,11.30
2019-04-25T01:01:58.234Z,11.10
2019-04-25T01:02:58.260Z,11.50
2019-04-25T01:03:58.215Z,10.80
2019-04-25T01:04:58.221Z,11.20
2019-04-25T01:05:58.190Z,10.90
2019-04-25T01:06:58.180Z,11.30
2019-04-25T01:07:58.167Z,10.80
2019-04-25T01:08:58.199Z,9.50
2019-04-25T01:09:58.154Z,10.30
2019-04-25T01:10:58.141Z,10.30
2019-04-25T01:11:58.130Z,9.80
2019-04-25T01:12:58.115Z,10.40
2019-04-25T01:13:58.107Z,10.30
2019-04-25T01:14:58.114Z,9.90
2019-04-25T01:15:58.086Z,9.80
2019-04-25T01:16:58.075Z,10.20
2019-04-25T01:17:58.068Z,10.10
2019-04-25T01:18:58.057Z,9.20
2019-04-25T01:20:08.542Z,9.50
2019-04-25T01:20:58.026Z,9.80
2019-04-25T01:21:58.017Z,9.20
2019-04-25T01:23:00.782Z,9.00
2019-04-25T01:23:57.996Z,9.30
2019-04-25T01:24:57.984Z,8.40
2019-04-25T01:25:57.990Z,8.80
2019-04-25T01:26:57.972Z,8.60
2019-04-25T01:27:57.955Z,8.80
2019-04-25T01:28:57.943Z,8.30
2019-04-25T01:29:57.929Z,8.40
2019-04-25T01:30:57.957Z,8.00
2019-04-25T01:31:57.909Z,8.40
2019-04-25T01:32:57.900Z,7.80
2019-04-25T01:33:57.889Z,7.60
2019-04-25T01:35:00.309Z,8.10
2019-04-25T01:35:57.868Z,7.70
2019-04-25T01:36:57.871Z,8.10
2019-04-25T01:37:57.849Z,7.50
2019-04-25T01:38:58.859Z,7.20
2019-04-25T01:39:57.827Z,7.10
2019-04-25T01:40:57.811Z,7.50
2019-04-25T01:41:57.843Z,6.90
2019-04-25T01:42:57.970Z,7.50
2019-04-25T01:43:59.670Z,6.70
2019-04-25T01:44:58.927Z,7.10
2019-04-25T01:45:57.973Z,7.00
2019-04-25T01:46:58.203Z,6.60
2019-04-25T01:47:58.448Z,7.10
2019-04-25T01:48:58.624Z,6.80
2019-04-25T01:49:58.492Z,6.90
2019-04-25T01:51:08.271Z,6.90
2019-04-25T01:51:58.632Z,6.70
2019-04-25T01:52:57.686Z,6.40
2019-04-25T01:53:57.689Z,6.20
2019-04-25T01:54:57.668Z,6.40
2019-04-25T01:56:02.705Z,6.90
2019-04-25T01:56:59.356Z,6.20
2019-04-25T01:57:57.637Z,6.50
2019-04-25T01:58:57.623Z,6.30
2019-04-25T01:59:57.651Z,5.60
2019-04-25T02:00:58.564Z,6.00
2019-04-25T02:01:57.590Z,5.40
2019-04-25T02:02:57.581Z,5.20
2019-04-25T02:03:57.573Z,5.70
2019-04-25T02:04:59.131Z,5.60
2019-04-25T02:05:57.593Z,5.30
2019-04-25T02:06:57.538Z,5.50
2019-04-25T02:07:57.524Z,4.70
2019-04-25T02:08:57.529Z,5.00
2019-04-25T02:09:57.504Z,4.80
2019-04-25T02:10:58.143Z,4.50
2019-04-25T02:11:57.521Z,4.70
2019-04-25T02:12:57.669Z,4.20
2019-04-25T02:13:57.476Z,4.20
2019-04-25T02:14:57.890Z,4.00
2019-04-25T02:15:57.440Z,4.20
2019-04-25T02:16:58.344Z,4.00
2019-04-25T02:17:59.108Z,4.00
2019-04-25T02:18:57.794Z,4.10
2019-04-25T02:19:57.863Z,4.20
2019-04-25T02:20:59.321Z,3.80
2019-04-25T02:22:08.804Z,4.20
2019-04-25T02:22:57.896Z,3.70
2019-04-25T02:23:58.142Z,3.70
2019-04-25T02:24:58.260Z,3.50
2019-04-25T02:26:09.587Z,3.50
2019-04-25T02:26:58.742Z,3.40
2019-04-25T02:28:00.856Z,3.70
2019-04-25T02:28:57.354Z,4.00
2019-04-25T02:29:57.327Z,3.50
2019-04-25T02:31:00.586Z,3.40
2019-04-25T02:32:01.014Z,3.30
2019-04-25T02:33:00.937Z,3.70
2019-04-25T02:34:00.724Z,3.20
2019-04-25T02:35:00.521Z,3.50
2019-04-25T02:36:00.774Z,3.60
2019-04-25T02:37:00.888Z,3.20
2019-04-25T02:38:01.308Z,3.00
2019-04-25T02:39:01.009Z,3.40
2019-04-25T02:39:59.999Z,3.20
2019-04-25T02:41:00.250Z,3.10
2019-04-25T02:42:00.182Z,3.10
2019-04-25T02:42:59.028Z,3.10
2019-04-25T02:44:01.409Z,2.90
2019-04-25T02:45:00.663Z,3.00
2019-04-25T02:45:58.449Z,3.10
2019-04-25T02:46:59.195Z,3.00
2019-04-25T02:47:58.479Z,2.80
2019-04-25T02:48:59.585Z,2.70
2019-04-25T02:49:58.547Z,3.00
2019-04-25T02:50:58.638Z,3.20
2019-04-25T02:51:59.257Z,2.90
2019-04-25T02:53:07.556Z,2.50
2019-04-25T02:53:57.769Z,2.70
2019-04-25T02:54:58.643Z,2.60
2019-04-25T02:55:57.773Z,2.70
2019-04-25T02:56:58.173Z,2.80
2019-04-25T02:57:58.275Z,2.50
2019-04-25T02:58:58.346Z,2.50
2019-04-25T02:59:58.297Z,2.50
2019-04-25T03:01:07.434Z,2.10
2019-04-25T03:01:59.134Z,2.40
2019-04-25T03:02:57.893Z,2.70
2019-04-25T03:03:57.971Z,2.40
2019-04-25T03:04:58.369Z,2.30
2019-04-25T03:05:57.533Z,2.40
2019-04-25T03:06:58.427Z,2.50
2019-04-25T03:07:57.923Z,2.30
2019-04-25T03:08:58.079Z,2.30
2019-04-25T03:09:58.092Z,2.40
2019-04-25T03:10:58.274Z,2.20
2019-04-25T03:11:58.231Z,2.20
2019-04-25T03:12:58.408Z,2.30
2019-04-25T03:13:57.532Z,2.40
2019-04-25T03:14:58.289Z,2.10
2019-04-25T03:15:58.498Z,2.20
2019-04-25T03:16:58.554Z,1.90
2019-04-25T03:17:58.616Z,1.90
2019-04-25T03:18:58.861Z,2.20
2019-04-25T03:19:59.275Z,2.40
2019-04-25T03:20:56.744Z,2.10
2019-04-25T03:21:56.736Z,2.60
2019-04-25T03:22:56.726Z,2.60
2019-04-25T03:24:10.437Z,2.50
2019-04-25T03:24:59.642Z,2.40
2019-04-25T03:25:56.694Z,2.60
2019-04-25T03:26:56.682Z,2.70
2019-04-25T03:27:56.674Z,2.40
2019-04-25T03:28:56.659Z,2.70
2019-04-25T03:29:56.646Z,2.50
2019-04-25T03:30:57.276Z,3.10
2019-04-25T03:31:56.645Z,2.80
2019-04-25T03:32:56.618Z,3.00
2019-04-25T03:33:56.612Z,3.20
2019-04-25T03:34:56.597Z,3.20
2019-04-25T03:35:56.589Z,3.60
2019-04-25T03:36:56.664Z,3.40
2019-04-25T03:37:56.568Z,3.30
2019-04-25T03:38:56.562Z,3.30
2019-04-25T03:39:56.550Z,3.40
2019-04-25T03:40:56.532Z,3.70
2019-04-25T03:41:56.530Z,3.20
2019-04-25T03:42:56.573Z,3.70
2019-04-25T03:43:56.499Z,3.30
2019-04-25T03:44:56.486Z,3.40
2019-04-25T03:45:56.480Z,3.50
2019-04-25T03:46:56.470Z,3.40
2019-04-25T03:47:56.460Z,3.60
2019-04-25T03:48:56.628Z,3.60
2019-04-25T03:49:56.442Z,3.70
2019-04-25T03:50:56.428Z,3.50
2019-04-25T03:51:56.411Z,3.40
2019-04-25T03:52:56.410Z,3.30
2019-04-25T03:53:56.388Z,3.60
2019-04-25T03:55:07.703Z,3.90
2019-04-25T03:55:56.375Z,3.40
2019-04-25T03:56:56.362Z,3.20
2019-04-25T03:57:56.354Z,3.10
2019-04-25T03:58:56.340Z,2.90
2019-04-25T03:59:56.329Z,3.00
2019-04-25T04:00:56.334Z,3.10
2019-04-25T04:01:56.315Z,2.70
2019-04-25T04:02:56.295Z,2.80
2019-04-25T04:03:56.283Z,3.20
2019-04-25T04:04:56.288Z,3.00
2019-04-25T04:05:56.261Z,3.30
2019-04-25T04:06:56.268Z,2.70
2019-04-25T04:07:56.245Z,3.00
2019-04-25T04:08:56.239Z,3.10
2019-04-25T04:09:56.221Z,2.70
2019-04-25T04:10:56.216Z,2.60
2019-04-25T04:11:56.228Z,2.70
2019-04-25T04:12:56.191Z,3.00
2019-04-25T04:13:56.176Z,2.40
2019-04-25T04:14:56.167Z,2.60
2019-04-25T04:15:56.163Z,2.60
2019-04-25T04:16:56.157Z,2.70
2019-04-25T04:17:56.144Z,2.60
2019-04-25T04:18:56.131Z,2.30
2019-04-25T04:19:56.119Z,2.70
2019-04-25T04:20:56.105Z,2.40
2019-04-25T04:21:56.091Z,2.90
2019-04-25T04:22:56.118Z,2.30
2019-04-25T04:23:57.259Z,2.20
2019-04-25T04:24:56.063Z,2.30
2019-04-25T04:26:06.258Z,2.50
2019-04-25T04:27:03.466Z,2.30
2019-04-25T04:27:57.035Z,2.30
2019-04-25T04:28:56.054Z,2.50
2019-04-25T04:29:56.019Z,2.30
2019-04-25T04:30:56.004Z,2.10
2019-04-25T04:31:55.989Z,2.30
2019-04-25T04:32:55.977Z,2.20
2019-04-25T04:33:55.969Z,2.60
2019-04-25T04:34:55.997Z,2.30
2019-04-25T04:35:55.949Z,2.50
2019-04-25T04:36:55.936Z,2.30
2019-04-25T04:37:55.924Z,2.20
2019-04-25T04:38:55.946Z,2.30
2019-04-25T04:39:55.911Z,2.20
2019-04-25T04:40:55.916Z,2.20
2019-04-25T04:41:55.876Z,2.50
2019-04-25T04:42:55.891Z,2.20
2019-04-25T04:43:55.865Z,2.60
2019-04-25T04:44:55.850Z,2.70
2019-04-25T04:45:55.838Z,2.70
2019-04-25T04:46:55.845Z,2.50
2019-04-25T04:47:55.835Z,2.90
2019-04-25T04:48:55.815Z,2.60
2019-04-25T04:49:55.795Z,2.40
2019-04-25T04:50:55.786Z,2.30
2019-04-25T04:51:55.814Z,2.80
2019-04-25T04:52:55.767Z,2.50
2019-04-25T04:53:55.750Z,2.70
2019-04-25T04:55:05.429Z,2.70
2019-04-25T04:55:56.730Z,2.80
2019-04-25T04:57:18.618Z,2.50
2019-04-25T04:57:56.715Z,2.40
2019-04-25T04:58:55.702Z,2.60
2019-04-25T04:59:55.686Z,2.60
2019-04-25T05:00:55.679Z,2.40
2019-04-25T05:01:55.673Z,2.70
2019-04-25T05:02:55.672Z,3.00
2019-04-25T05:03:55.650Z,2.50
2019-04-25T05:04:55.632Z,3.10
2019-04-25T05:05:55.621Z,2.20
2019-04-25T05:06:55.609Z,2.40
2019-04-25T05:07:55.601Z,2.70
2019-04-25T05:08:55.634Z,2.30
2019-04-25T05:09:55.580Z,2.60
2019-04-25T05:10:57.360Z,2.60
2019-04-25T05:11:55.567Z,2.50
2019-04-25T05:12:55.553Z,2.60
2019-04-25T05:13:55.536Z,2.60
2019-04-25T05:14:55.568Z,2.60
2019-04-25T05:15:55.542Z,2.40
2019-04-25T05:16:55.510Z,2.60
2019-04-25T05:17:55.500Z,2.50
2019-04-25T05:18:55.489Z,2.20
2019-04-25T05:19:55.477Z,2.30
2019-04-25T05:20:55.504Z,2.30
2019-04-25T05:21:55.458Z,2.10
2019-04-25T05:22:55.441Z,2.50
2019-04-25T05:23:55.430Z,2.40
2019-04-25T05:24:55.426Z,2.20
2019-04-25T05:25:55.786Z,2.10
2019-04-25T05:26:55.407Z,2.50
2019-04-25T05:28:06.570Z,2.50
2019-04-25T05:28:55.381Z,1.90
2019-04-25T05:29:55.366Z,2.20
2019-04-25T05:30:55.367Z,2.50
2019-04-25T05:31:55.345Z,2.50
2019-04-25T05:32:55.339Z,1.80
2019-04-25T05:33:55.323Z,2.00
2019-04-25T05:34:55.337Z,2.20
2019-04-25T05:35:55.339Z,2.10
2019-04-25T05:36:55.297Z,2.20
2019-04-25T05:37:55.292Z,2.40
2019-04-25T05:38:55.275Z,1.80
2019-04-25T05:39:55.263Z,1.80
2019-04-25T05:40:55.252Z,2.50
2019-04-25T05:41:55.281Z,2.40
2019-04-25T05:42:55.231Z,2.10
2019-04-25T05:43:55.218Z,2.10
2019-04-25T05:44:55.235Z,2.00
2019-04-25T05:45:55.199Z,1.90
2019-04-25T05:46:55.188Z,1.90
2019-04-25T05:47:55.237Z,2.30
2019-04-25T05:48:55.226Z,2.00
2019-04-25T05:49:55.155Z,2.00
2019-04-25T05:50:55.142Z,2.00
2019-04-25T05:51:55.127Z,2.30
2019-04-25T05:52:55.123Z,2.10
2019-04-25T05:53:55.253Z,2.20
2019-04-25T05:54:55.102Z,2.00
2019-04-25T05:55:55.091Z,1.80
2019-04-25T05:56:55.081Z,1.90
2019-04-25T05:57:55.066Z,1.70
2019-04-25T05:59:06.299Z,1.70
2019-04-25T05:59:55.045Z,1.90
2019-04-25T06:00:55.057Z,1.80
2019-04-25T06:01:55.025Z,1.80
2019-04-25T06:02:55.015Z,2.40
2019-04-25T06:03:55.000Z,1.40
2019-04-25T06:04:55.034Z,1.70
2019-04-25T06:05:54.982Z,1.80
2019-04-25T06:06:55.268Z,1.50
2019-04-25T06:07:54.960Z,1.70
2019-04-25T06:08:54.952Z,1.60
2019-04-25T06:09:54.946Z,1.50
2019-04-25T06:10:54.963Z,1.70
2019-04-25T06:11:54.918Z,1.70
2019-04-25T06:12:54.907Z,1.90
2019-04-25T06:13:54.904Z,1.70
2019-04-25T06:14:54.899Z,1.60
2019-04-25T06:15:54.873Z,2.10
2019-04-25T06:16:54.877Z,2.00
2019-04-25T06:17:55.505Z,4.20
2019-04-25T06:18:54.995Z,3.90
2019-04-25T06:19:54.836Z,2.30
2019-04-25T06:20:55.643Z,2.00
2019-04-25T06:21:54.860Z,1.80
2019-04-25T06:22:54.802Z,1.80
2019-04-25T06:23:54.787Z,1.90
2019-04-25T06:24:54.781Z,2.20
2019-04-25T06:25:54.778Z,1.70
2019-04-25T06:26:54.760Z,2.00
2019-04-25T06:27:57.286Z,2.20
2019-04-25T06:28:59.497Z,1.90
2019-04-25T06:31:10.388Z,1.70
2019-04-25T06:32:08.941Z,2.00
2019-04-25T06:33:08.950Z,1.80
2019-04-25T06:34:08.947Z,2.30
2019-04-25T06:35:08.910Z,2.10
2019-04-25T06:36:08.903Z,1.90
2019-04-25T06:37:08.887Z,2.30
2019-04-25T06:38:08.879Z,2.90
2019-04-25T06:39:08.877Z,2.90
2019-04-25T06:40:08.857Z,1.90
2019-04-25T06:41:08.847Z,2.00
2019-04-25T06:42:08.829Z,1.80
2019-04-25T06:43:08.822Z,1.80
2019-04-25T06:44:08.850Z,1.60
2019-04-25T06:45:08.797Z,1.70
2019-04-25T06:46:08.790Z,2.40
2019-04-25T06:47:08.782Z,2.20
2019-04-25T06:48:08.773Z,1.70
2019-04-25T06:49:08.760Z,2.10
2019-04-25T06:50:08.784Z,2.20
2019-04-25T06:51:08.740Z,1.80
2019-04-25T06:52:08.725Z,2.10
2019-04-25T06:53:08.714Z,1.80
2019-04-25T06:54:08.705Z,1.70
2019-04-25T06:55:08.690Z,1.90
2019-04-25T06:56:08.698Z,1.90
2019-04-25T06:57:08.671Z,2.10
2019-04-25T06:58:11.732Z,2.20
2019-04-25T06:59:08.660Z,2.10
2019-04-25T07:00:08.645Z,1.70
2019-04-25T07:01:19.247Z,1.60
2019-04-25T07:02:08.618Z,2.10
2019-04-25T07:03:08.610Z,2.20
2019-04-25T07:04:08.596Z,1.90
2019-04-25T07:05:08.583Z,2.30
2019-04-25T07:06:08.580Z,2.00
2019-04-25T07:07:12.449Z,2.10
2019-04-25T07:08:08.555Z,1.80
2019-04-25T07:09:08.546Z,1.80
2019-04-25T07:10:08.533Z,2.20
2019-04-25T07:11:08.517Z,2.40
2019-04-25T07:12:08.543Z,1.60
2019-04-25T07:13:08.503Z,2.00
2019-04-25T07:14:08.490Z,1.90
2019-04-25T07:15:08.479Z,1.60
2019-04-25T07:16:08.464Z,2.10
2019-04-25T07:17:08.457Z,1.90
2019-04-25T07:18:08.487Z,2.00
2019-04-25T07:19:08.429Z,2.00
2019-04-25T07:20:08.427Z,1.90
2019-04-25T07:21:08.423Z,1.80
2019-04-25T07:22:08.403Z,1.70
2019-04-25T07:23:08.388Z,1.70
2019-04-25T07:24:08.398Z,1.60
2019-04-25T07:25:08.372Z,1.70
2019-04-25T07:26:08.357Z,1.70
2019-04-25T07:27:08.350Z,2.10
2019-04-25T07:28:08.338Z,1.60
2019-04-25T07:29:08.325Z,1.70
2019-04-25T07:30:08.336Z,1.40
2019-04-25T07:31:08.302Z,1.40
2019-04-25T07:32:18.726Z,1.70
2019-04-25T07:33:08.280Z,1.70
2019-04-25T07:34:08.283Z,1.70
2019-04-25T07:35:08.261Z,1.40
2019-04-25T07:36:08.285Z,1.50
2019-04-25T07:37:08.235Z,2.00
2019-04-25T07:38:08.234Z,1.70
2019-04-25T07:39:10.533Z,1.60
2019-04-25T07:40:08.209Z,1.50
2019-04-25T07:41:08.193Z,1.90
2019-04-25T07:42:08.203Z,1.30
2019-04-25T07:43:08.176Z,1.70
2019-04-25T07:44:08.162Z,1.70
2019-04-25T07:45:08.183Z,1.60
2019-04-25T07:46:08.140Z,1.60
2019-04-25T07:47:08.136Z,1.70
2019-04-25T07:48:08.132Z,2.60
2019-04-25T07:49:08.112Z,2.00
2019-04-25T07:50:08.102Z,2.60
2019-04-25T07:51:08.090Z,2.30
2019-04-25T07:52:08.083Z,2.20
2019-04-25T07:53:08.110Z,3.80
2019-04-25T07:54:08.059Z,2.20
2019-04-25T07:55:08.050Z,2.20
2019-04-25T07:56:08.037Z,1.90
2019-04-25T07:57:08.022Z,1.60
2019-04-25T07:58:08.016Z,1.70
2019-04-25T07:59:08.035Z,1.40
2019-04-25T08:00:07.997Z,1.40
2019-04-25T08:01:07.983Z,1.70
2019-04-25T08:02:07.973Z,2.20
2019-04-25T08:03:18.177Z,1.80
2019-04-25T08:04:07.946Z,1.50
2019-04-25T08:05:07.977Z,1.70
2019-04-25T08:06:07.929Z,1.60
2019-04-25T08:07:07.921Z,1.60
2019-04-25T08:08:07.911Z,1.70
2019-04-25T08:09:07.897Z,1.70
2019-04-25T08:10:07.888Z,1.60
2019-04-25T08:11:07.882Z,1.90
2019-04-25T08:12:07.862Z,1.60
2019-04-25T08:13:07.855Z,1.90
2019-04-25T08:14:07.847Z,1.80
2019-04-25T08:15:07.835Z,2.60
2019-04-25T08:16:07.838Z,2.10
2019-04-25T08:17:07.807Z,2.40
2019-04-25T08:18:07.797Z,2.30
2019-04-25T08:19:07.783Z,1.80
2019-04-25T08:20:07.775Z,2.10
2019-04-25T08:21:07.765Z,2.20
2019-04-25T08:22:07.793Z,2.30
2019-04-25T08:23:07.748Z,2.40
2019-04-25T08:24:07.735Z,3.00
2019-04-25T08:25:07.723Z,2.60
2019-04-25T08:26:07.710Z,2.00
2019-04-25T08:27:07.696Z,2.00
2019-04-25T08:28:07.719Z,2.20
2019-04-25T08:29:07.682Z,2.10
2019-04-25T08:30:07.667Z,2.00
2019-04-25T08:31:07.656Z,2.50
2019-04-25T08:32:07.652Z,2.20
2019-04-25T08:33:07.636Z,2.30
2019-04-25T08:34:17.867Z,1.90
2019-04-25T08:35:07.617Z,2.10
2019-04-25T08:36:09.329Z,1.80
2019-04-25T08:37:17.569Z,1.80
2019-04-25T08:38:08.578Z,2.20
2019-04-25T08:39:07.574Z,1.80
2019-04-25T08:40:07.570Z,2.20
2019-04-25T08:41:07.553Z,1.70
2019-04-25T08:42:07.537Z,1.90
2019-04-25T08:43:07.527Z,2.00
2019-04-25T08:44:07.531Z,2.10
2019-04-25T08:45:07.510Z,2.40
2019-04-25T08:46:07.493Z,1.70
2019-04-25T08:47:07.486Z,1.80
2019-04-25T08:48:07.472Z,1.90
2019-04-25T08:49:07.461Z,2.00
2019-04-25T08:50:07.466Z,1.80
2019-04-25T08:51:07.440Z,1.70
2019-04-25T08:52:07.430Z,1.70
2019-04-25T08:53:07.426Z,1.60
2019-04-25T08:54:07.414Z,1.80
2019-04-25T08:55:07.434Z,1.80
2019-04-25T08:56:07.388Z,2.10
2019-04-25T08:57:07.382Z,1.40
2019-04-25T08:58:07.376Z,1.50
2019-04-25T08:59:08.093Z,2.00
2019-04-25T09:00:07.349Z,1.50
2019-04-25T09:01:07.344Z,1.60
2019-04-25T09:02:07.325Z,1.70
2019-04-25T09:03:07.330Z,1.70
2019-04-25T09:04:07.309Z,1.80
2019-04-25T09:05:19.107Z,1.60
2019-04-25T09:06:07.298Z,2.00
2019-04-25T09:07:07.273Z,2.20
2019-04-25T09:08:07.264Z,1.50
2019-04-25T09:09:07.299Z,1.70
2019-04-25T09:10:07.243Z,1.60
2019-04-25T09:11:07.253Z,1.80
2019-04-25T09:12:07.223Z,1.70
2019-04-25T09:13:07.262Z,2.10
2019-04-25T09:14:07.198Z,2.00
2019-04-25T09:15:07.188Z,1.90
2019-04-25T09:16:07.183Z,1.90
2019-04-25T09:17:07.210Z,2.00
2019-04-25T09:18:07.158Z,1.60
2019-04-25T09:19:07.151Z,1.90
2019-04-25T09:20:07.141Z,1.70
2019-04-25T09:21:07.127Z,1.70
2019-04-25T09:22:07.120Z,2.60
2019-04-25T09:23:07.148Z,1.60
2019-04-25T09:24:07.099Z,1.50
2019-04-25T09:25:07.079Z,1.90
2019-04-25T09:26:07.080Z,1.90
2019-04-25T09:27:07.075Z,2.30
2019-04-25T09:28:07.052Z,2.40
2019-04-25T09:29:16.725Z,2.00
2019-04-25T09:30:08.033Z,1.60
2019-04-25T09:31:07.017Z,2.60
2019-04-25T09:32:07.006Z,3.70
2019-04-25T09:33:06.992Z,3.20
2019-04-25T09:34:06.986Z,2.80
2019-04-25T09:35:07.022Z,3.80
2019-04-25T09:36:18.099Z,2.00
2019-04-25T09:37:06.958Z,2.70
2019-04-25T09:38:06.948Z,2.10
2019-04-25T09:39:06.934Z,2.50
2019-04-25T09:40:06.932Z,3.20
2019-04-25T09:41:06.926Z,2.80
2019-04-25T09:42:06.904Z,3.10
2019-04-25T09:43:06.894Z,2.50
2019-04-25T09:44:06.874Z,2.10
2019-04-25T09:45:06.905Z,2.30
2019-04-25T09:46:06.862Z,2.50
2019-04-25T09:47:06.848Z,2.90
2019-04-25T09:48:06.839Z,1.80
2019-04-25T09:49:06.824Z,1.80
2019-04-25T09:50:06.811Z,2.40
2019-04-25T09:51:06.811Z,2.00
2019-04-25T09:52:06.795Z,1.90
2019-04-25T09:53:06.786Z,2.00
2019-04-25T09:54:06.773Z,1.60
2019-04-25T09:55:06.763Z,2.40
2019-04-25T09:56:06.797Z,1.80
2019-04-25T09:57:06.744Z,2.10
2019-04-25T09:58:06.730Z,1.90
2019-04-25T09:59:06.718Z,2.10
2019-04-25T10:00:06.702Z,2.40
2019-04-25T10:01:06.690Z,1.90
2019-04-25T10:02:06.719Z,2.60
2019-04-25T10:03:06.676Z,2.20
2019-04-25T10:04:06.662Z,2.50
2019-04-25T10:05:06.660Z,2.40
2019-04-25T10:06:06.640Z,1.90
2019-04-25T10:07:16.960Z,2.30
2019-04-25T10:08:06.663Z,2.10
2019-04-25T10:09:06.611Z,2.30
2019-04-25T10:10:06.595Z,2.50
2019-04-25T10:11:06.584Z,2.40
2019-04-25T10:12:06.575Z,2.30
2019-04-25T10:13:06.736Z,2.10
2019-04-25T10:14:06.567Z,2.10
2019-04-25T10:15:06.548Z,2.10
2019-04-25T10:16:06.540Z,2.40
2019-04-25T10:17:06.525Z,1.80
2019-04-25T10:18:06.513Z,1.90
2019-04-25T10:19:06.512Z,2.30
2019-04-25T10:20:06.490Z,2.20
2019-04-25T10:21:06.480Z,2.50
2019-04-25T10:22:06.467Z,2.10
2019-04-25T10:23:06.462Z,2.50
2019-04-25T10:24:06.489Z,2.50
2019-04-25T10:25:06.444Z,2.90
2019-04-25T10:26:06.429Z,2.30
2019-04-25T10:27:06.419Z,2.50
2019-04-25T10:28:06.403Z,2.30
2019-04-25T10:29:06.392Z,2.20
2019-04-25T10:30:16.766Z,2.40
2019-04-25T10:31:07.373Z,3.00
2019-04-25T10:32:06.368Z,2.30
2019-04-25T10:33:06.358Z,2.50
2019-04-25T10:34:06.347Z,2.50
2019-04-25T10:35:06.336Z,3.40
2019-04-25T10:36:06.369Z,3.20
2019-04-25T10:37:06.307Z,2.60
2019-04-25T10:38:17.831Z,2.60
2019-04-25T10:39:10.724Z,2.40
2019-04-25T10:40:06.282Z,2.30
2019-04-25T10:41:06.274Z,2.50
2019-04-25T10:42:06.298Z,2.50
2019-04-25T10:43:06.457Z,2.30
2019-04-25T10:44:06.234Z,2.90
2019-04-25T10:45:06.241Z,2.50
2019-04-25T10:46:06.216Z,2.60
2019-04-25T10:47:06.208Z,2.50
2019-04-25T10:48:06.200Z,2.60
2019-04-25T10:49:06.182Z,2.20
2019-04-25T10:50:06.180Z,2.40
2019-04-25T10:51:06.159Z,2.10
2019-04-25T10:52:06.160Z,2.60
2019-04-25T10:53:06.163Z,2.40
2019-04-25T10:54:06.130Z,2.10
2019-04-25T10:55:06.120Z,2.50
2019-04-25T10:56:06.154Z,2.40
2019-04-25T10:57:06.590Z,2.70
2019-04-25T10:58:06.090Z,2.60
2019-04-25T10:59:06.112Z,2.50
2019-04-25T11:00:09.348Z,2.50
2019-04-25T11:01:06.059Z,2.60
2019-04-25T11:02:06.048Z,2.80
2019-04-25T11:03:06.040Z,2.60
2019-04-25T11:04:06.029Z,3.00
2019-04-25T11:05:06.033Z,2.40
2019-04-25T11:06:06.001Z,2.40
2019-04-25T11:07:06.040Z,2.70
2019-04-25T11:08:05.988Z,2.70
2019-04-25T11:09:18.426Z,2.40
2019-04-25T11:10:05.964Z,2.90
2019-04-25T11:11:05.962Z,2.60
2019-04-25T11:12:05.938Z,3.20
2019-04-25T11:13:05.926Z,2.90
2019-04-25T11:14:07.505Z,2.50
2019-04-25T11:15:05.911Z,3.10
2019-04-25T11:16:05.936Z,2.40
2019-04-25T11:17:05.892Z,2.30
2019-04-25T11:18:05.875Z,2.30
2019-04-25T11:19:05.865Z,2.50
2019-04-25T11:20:05.858Z,2.50
2019-04-25T11:21:06.180Z,2.30
2019-04-25T11:22:05.878Z,2.60
2019-04-25T11:23:05.825Z,2.50
2019-04-25T11:24:05.813Z,2.30
2019-04-25T11:25:05.806Z,2.50
2019-04-25T11:26:05.797Z,2.30
2019-04-25T11:27:05.778Z,2.50
2019-04-25T11:28:05.779Z,2.40
2019-04-25T11:29:05.755Z,2.50
2019-04-25T11:30:10.616Z,2.30
2019-04-25T11:31:06.739Z,2.30
2019-04-25T11:32:05.733Z,2.00
2019-04-25T11:33:05.751Z,2.50
2019-04-25T11:34:05.709Z,2.20
2019-04-25T11:35:05.697Z,1.90
2019-04-25T11:36:05.688Z,2.10
2019-04-25T11:37:05.959Z,2.30
2019-04-25T11:38:05.666Z,2.20
2019-04-25T11:39:05.697Z,2.10
2019-04-25T11:40:16.098Z,2.10
2019-04-25T11:41:05.633Z,2.00
2019-04-25T11:42:05.623Z,2.00
2019-04-25T11:43:05.616Z,1.80
2019-04-25T11:44:05.601Z,1.90
2019-04-25T11:45:06.014Z,1.90
2019-04-25T11:46:05.585Z,1.80
2019-04-25T11:47:07.201Z,1.90
2019-04-25T11:48:05.560Z,1.90
2019-04-25T11:49:05.547Z,2.00
2019-04-25T11:50:05.539Z,1.80
2019-04-25T11:51:05.570Z,1.90
2019-04-25T11:52:05.520Z,1.70
2019-04-25T11:53:05.509Z,1.80
2019-04-25T11:54:05.496Z,1.80
2019-04-25T11:55:05.485Z,1.80
2019-04-25T11:56:05.472Z,1.70
2019-04-25T11:57:05.472Z,1.70
2019-04-25T11:58:05.448Z,1.50
2019-04-25T11:59:05.441Z,1.70
2019-04-25T12:00:05.430Z,1.70
2019-04-25T12:01:05.419Z,1.60
2019-04-25T12:02:05.420Z,1.80
2019-04-25T12:03:05.396Z,1.50
2019-04-25T12:04:05.393Z,1.80
2019-04-25T12:05:05.376Z,1.80
2019-04-25T12:06:05.366Z,1.60
2019-04-25T12:07:07.141Z,1.40
2019-04-25T12:08:05.346Z,1.80
2019-04-25T12:09:05.336Z,1.70
2019-04-25T12:10:05.323Z,1.40
2019-04-25T12:11:15.767Z,1.80
2019-04-25T12:12:05.722Z,1.80
2019-04-25T12:13:05.329Z,1.60
2019-04-25T12:14:05.282Z,1.80
2019-04-25T12:15:05.272Z,1.30
2019-04-25T12:16:05.269Z,1.40
2019-04-25T12:17:05.253Z,1.70
2019-04-25T12:18:05.237Z,1.60
2019-04-25T12:19:05.237Z,1.30
2019-04-25T12:20:05.220Z,1.70
2019-04-25T12:21:05.206Z,1.60
2019-04-25T12:22:05.206Z,1.50
2019-04-25T12:23:10.271Z,1.60
2019-04-25T12:24:06.221Z,1.40
2019-04-25T12:25:05.166Z,1.40
2019-04-25T12:26:05.155Z,1.20
2019-04-25T12:27:05.148Z,1.40
2019-04-25T12:28:05.701Z,1.40
2019-04-25T12:29:05.124Z,1.20
2019-04-25T12:30:05.486Z,1.30
2019-04-25T12:31:05.105Z,1.50
2019-04-25T12:32:05.097Z,1.40
2019-04-25T12:33:06.165Z,1.50
2019-04-25T12:34:06.075Z,1.40
2019-04-25T12:35:06.176Z,1.10
2019-04-25T12:36:05.066Z,1.40
2019-04-25T12:37:05.041Z,1.50
2019-04-25T12:38:05.025Z,1.30
2019-04-25T12:39:05.026Z,1.50
2019-04-25T12:40:06.100Z,1.20
2019-04-25T12:41:05.039Z,1.10
2019-04-25T12:42:14.986Z,1.20
2019-04-25T12:43:05.232Z,1.20
2019-04-25T12:44:04.969Z,1.30
2019-04-25T12:45:04.953Z,1.30
2019-04-25T12:46:04.950Z,1.40
2019-04-25T12:47:04.972Z,1.30
2019-04-25T12:48:04.922Z,1.30
2019-04-25T12:49:04.915Z,1.40
2019-04-25T12:50:04.907Z,1.10
2019-04-25T12:51:04.888Z,1.30
2019-04-25T12:52:04.877Z,1.10
2019-04-25T12:53:04.909Z,1.20
2019-04-25T12:54:04.857Z,1.30
2019-04-25T12:55:04.854Z,1.20
2019-04-25T12:56:04.838Z,1.10
2019-04-25T12:57:05.609Z,1.20
2019-04-25T12:58:05.808Z,1.40
2019-04-25T12:59:04.846Z,1.10
2019-04-25T13:00:05.826Z,1.10
2019-04-25T13:01:04.783Z,1.40
2019-04-25T13:02:04.775Z,1.50
2019-04-25T13:03:06.956Z,1.20
2019-04-25T13:04:05.274Z,1.10
2019-04-25T13:05:05.736Z,1.40
2019-04-25T13:06:04.729Z,1.40
2019-04-25T13:07:05.359Z,1.40
2019-04-25T13:08:04.927Z,1.10
2019-04-25T13:09:05.418Z,1.10
2019-04-25T13:10:05.645Z,1.20
2019-04-25T13:11:08.578Z,1.10
2019-04-25T13:12:05.950Z,1.20
2019-04-25T13:13:16.297Z,1.10
2019-04-25T13:14:04.650Z,1.10
2019-04-25T13:15:04.638Z,1.20
2019-04-25T13:16:04.679Z,1.20
2019-04-25T13:17:08.039Z,1.00
2019-04-25T13:18:04.607Z,1.20
2019-04-25T13:19:16.704Z,1.30